createdAt,value
2022-10-25T00:01:25.128Z,2.00
2022-10-25T00:03:51.968Z,1.45
2022-10-25T00:06:18.575Z,1.42
2022-10-25T00:08:45.019Z,1.52
2022-10-25T00:11:32.677Z,1.30
2022-10-25T00:14:02.083Z,1.95
2022-10-25T00:16:32.339Z,1.58
2022-10-25T00:18:58.891Z,1.85
2022-10-25T00:21:25.756Z,1.40
2022-10-25T00:23:52.892Z,1.42
2022-10-25T00:26:20.141Z,1.23
2022-10-25T00:28:46.446Z,1.40
2022-10-25T00:31:15.733Z,1.77
2022-10-25T00:33:43.467Z,1.67
2022-10-25T00:36:18.715Z,1.63
2022-10-25T00:38:46.159Z,1.00
2022-10-25T00:41:14.628Z,1.33
2022-10-25T00:43:44.254Z,1.60
2022-10-25T00:46:23.179Z,1.90
2022-10-25T00:49:15.952Z,1.27
2022-10-25T00:51:47.940Z,1.10
2022-10-25T00:54:18.798Z,1.50
2022-10-25T00:56:48.973Z,1.70
2022-10-25T00:59:18.893Z,1.65
2022-10-25T01:01:45.339Z,1.60
2022-10-25T01:04:16.047Z,2.08
2022-10-25T01:06:51.509Z,1.70
2022-10-25T01:09:24.343Z,1.40
2022-10-25T01:11:50.854Z,1.85
2022-10-25T01:14:18.110Z,1.77
2022-10-25T01:17:03.164Z,1.85
2022-10-25T01:19:51.227Z,1.70
2022-10-25T01:22:29.616Z,1.80
2022-10-25T01:25:08.925Z,1.92
2022-10-25T01:27:54.385Z,1.73
2022-10-25T01:30:55.040Z,1.95
2022-10-25T01:33:46.957Z,1.80
2022-10-25T01:36:40.984Z,2.40
2022-10-25T01:39:13.141Z,1.73
2022-10-25T01:42:08.711Z,1.70
2022-10-25T01:44:37.765Z,1.60
2022-10-25T01:47:10.509Z,1.88
2022-10-25T01:49:45.498Z,1.42
2022-10-25T01:52:13.128Z,1.73
2022-10-25T01:54:39.428Z,1.58
2022-10-25T01:57:21.162Z,1.70
2022-10-25T02:00:00.130Z,1.90
2022-10-25T02:02:31.256Z,1.42
2022-10-25T02:07:35.588Z,2.03
2022-10-25T02:10:08.111Z,1.60
2022-10-25T02:12:46.734Z,1.90
2022-10-25T02:15:18.090Z,1.52
2022-10-25T02:20:18.968Z,1.40
2022-10-25T02:22:46.470Z,1.65
2022-10-25T02:25:13.862Z,1.90
2022-10-25T02:27:41.205Z,1.67
2022-10-25T02:30:08.570Z,1.77
2022-10-25T02:32:35.166Z,1.30
2022-10-25T02:35:01.918Z,2.20
2022-10-25T02:37:28.322Z,1.73
2022-10-25T02:39:55.915Z,1.80
2022-10-25T02:42:22.420Z,1.83
2022-10-25T02:44:48.783Z,2.17
2022-10-25T02:47:15.090Z,1.98
2022-10-25T02:49:41.469Z,2.42
2022-10-25T02:52:07.814Z,2.33
2022-10-25T02:54:34.111Z,3.55
2022-10-25T02:57:00.440Z,2.08
2022-10-25T02:59:26.856Z,2.53
2022-10-25T03:01:53.295Z,2.50
2022-10-25T03:04:19.629Z,2.00
2022-10-25T03:06:45.966Z,1.95
2022-10-25T03:09:12.374Z,2.17
2022-10-25T03:11:38.846Z,2.33
2022-10-25T03:14:05.153Z,2.03
2022-10-25T03:16:31.477Z,1.73
2022-10-25T03:18:58.853Z,2.28
2022-10-25T03:21:25.344Z,2.10
2022-10-25T03:23:51.883Z,1.98
2022-10-25T03:26:18.231Z,2.78
2022-10-25T03:28:44.546Z,2.67
2022-10-25T03:31:13.295Z,2.45
2022-10-25T03:33:40.403Z,2.25
2022-10-25T03:36:07.194Z,2.10
2022-10-25T03:38:33.485Z,2.28
2022-10-25T03:40:59.919Z,1.50
2022-10-25T03:43:31.653Z,2.03
2022-10-25T03:45:58.546Z,1.88
2022-10-25T03:48:24.890Z,1.77
2022-10-25T03:50:52.897Z,2.20
2022-10-25T03:53:19.300Z,2.40
2022-10-25T03:55:45.659Z,2.53
2022-10-25T03:58:11.975Z,1.80
2022-10-25T04:00:38.661Z,1.67
2022-10-25T04:05:31.897Z,2.13
2022-10-25T04:07:58.825Z,2.08
2022-10-25T04:10:26.128Z,1.77
2022-10-25T04:12:53.848Z,2.28
2022-10-25T04:15:21.624Z,1.52
2022-10-25T04:17:52.261Z,2.50
2022-10-25T04:20:19.679Z,2.40
2022-10-25T04:22:45.988Z,2.42
2022-10-25T04:25:12.334Z,3.10
2022-10-25T04:27:38.710Z,2.65
2022-10-25T04:30:05.360Z,3.00
2022-10-25T04:32:31.658Z,2.92
2022-10-25T04:34:58.028Z,2.63
2022-10-25T04:37:24.318Z,2.75
2022-10-25T04:39:50.636Z,2.60
2022-10-25T04:42:18.171Z,2.70
2022-10-25T04:44:44.769Z,2.47
2022-10-25T04:47:11.080Z,2.70
2022-10-25T04:49:37.454Z,2.47
2022-10-25T04:52:03.867Z,2.42
2022-10-25T04:54:30.159Z,2.60
2022-10-25T04:56:56.465Z,3.03
2022-10-25T04:59:22.776Z,2.83
2022-10-25T05:01:49.280Z,2.47
2022-10-25T05:04:15.617Z,3.03
2022-10-25T05:06:41.975Z,2.60
2022-10-25T05:09:08.307Z,2.60
2022-10-25T05:11:34.631Z,1.48
2022-10-25T05:14:00.978Z,2.60
2022-10-25T05:16:27.337Z,2.58
2022-10-25T05:18:55.365Z,2.50
2022-10-25T05:24:01.427Z,2.42
2022-10-25T05:26:28.743Z,2.40
2022-10-25T05:28:55.481Z,2.55
2022-10-25T05:31:24.727Z,2.60
2022-10-25T05:33:54.532Z,2.42
2022-10-25T05:36:21.289Z,2.60
2022-10-25T05:38:48.018Z,2.28
2022-10-25T05:41:16.318Z,3.13
2022-10-25T05:43:43.307Z,2.05
2022-10-25T05:46:15.697Z,1.88
2022-10-25T05:48:47.327Z,2.28
2022-10-25T05:51:42.135Z,2.45
2022-10-25T05:54:13.890Z,2.13
2022-10-25T05:56:41.555Z,2.40
2022-10-25T05:59:13.217Z,2.15
2022-10-25T06:01:48.667Z,2.90
2022-10-25T06:04:16.850Z,2.47
2022-10-25T06:06:45.196Z,2.42
2022-10-25T06:09:12.688Z,2.50
2022-10-25T06:11:39.864Z,2.30
2022-10-25T06:14:06.770Z,2.50
2022-10-25T06:16:33.142Z,2.53
2022-10-25T06:18:59.514Z,1.90
2022-10-25T06:21:28.228Z,3.30
2022-10-25T06:23:56.015Z,2.55
2022-10-25T06:26:24.826Z,2.42
2022-10-25T06:28:57.187Z,1.67
2022-10-25T06:31:23.618Z,2.60
2022-10-25T06:33:49.949Z,2.35
2022-10-25T06:36:27.741Z,2.55
2022-10-25T06:38:54.562Z,2.95
2022-10-25T06:41:27.534Z,2.75
2022-10-25T06:43:55.168Z,2.47
2022-10-25T06:46:23.604Z,2.75
2022-10-25T06:48:51.588Z,3.10
2022-10-25T06:51:18.115Z,2.30
2022-10-25T06:53:45.285Z,2.65
2022-10-25T06:56:14.703Z,2.08
2022-10-25T06:58:41.317Z,1.95
2022-10-25T07:01:11.859Z,2.03
2022-10-25T07:03:38.493Z,2.22
2022-10-25T07:06:09.067Z,1.67
2022-10-25T07:08:36.894Z,2.15
2022-10-25T07:11:04.506Z,1.48
2022-10-25T07:13:32.564Z,2.15
2022-10-25T07:16:06.777Z,2.08
2022-10-25T07:18:33.908Z,2.22
2022-10-25T07:21:25.244Z,2.30
2022-10-25T07:26:19.877Z,2.60
2022-10-25T07:28:48.157Z,2.50
2022-10-25T07:31:16.862Z,2.92
2022-10-25T07:33:43.262Z,3.30
2022-10-25T07:36:11.797Z,2.70
2022-10-25T07:38:38.473Z,14.85
2022-10-25T07:41:05.070Z,3.90
2022-10-25T07:43:31.465Z,4.03
2022-10-25T07:45:57.831Z,3.42
2022-10-25T07:48:24.393Z,4.03
2022-10-25T07:50:50.978Z,3.58
2022-10-25T07:53:18.122Z,3.67
2022-10-25T07:55:52.977Z,3.80
2022-10-25T07:58:19.521Z,3.30
2022-10-25T08:00:46.179Z,4.85
2022-10-25T08:03:14.544Z,3.90
2022-10-25T08:05:42.809Z,4.05
2022-10-25T08:08:09.161Z,3.78
2022-10-25T08:10:35.453Z,3.83
2022-10-25T08:13:01.801Z,3.50
2022-10-25T08:15:28.153Z,2.83
2022-10-25T08:18:01.897Z,4.07
2022-10-25T08:20:56.376Z,3.72
2022-10-25T08:23:15.896Z,3.33
2022-10-25T08:25:42.790Z,3.55
2022-10-25T08:28:09.193Z,3.15
2022-10-25T08:30:35.626Z,2.95
2022-10-25T08:33:02.293Z,4.43
2022-10-25T08:35:29.185Z,3.55
2022-10-25T08:37:55.556Z,4.18
2022-10-25T08:40:25.926Z,3.75
2022-10-25T08:43:00.742Z,4.80
2022-10-25T08:45:43.769Z,3.95
2022-10-25T08:48:18.924Z,3.63
2022-10-25T08:50:49.185Z,4.70
2022-10-25T08:53:51.974Z,3.80
2022-10-25T08:56:19.262Z,4.47
2022-10-25T08:58:54.597Z,4.15
2022-10-25T09:01:28.788Z,4.38
2022-10-25T09:03:55.665Z,3.17
2022-10-25T09:06:29.957Z,4.03
2022-10-25T09:09:14.177Z,3.78
2022-10-25T09:12:15.264Z,4.10
2022-10-25T09:14:58.999Z,4.30
2022-10-25T09:17:50.074Z,5.07
2022-10-25T09:20:19.860Z,4.20
2022-10-25T09:22:57.231Z,4.22
2022-10-25T09:25:34.193Z,3.20
2022-10-25T09:28:08.151Z,4.10
2022-10-25T09:30:39.690Z,4.03
2022-10-25T09:33:12.656Z,3.88
2022-10-25T09:35:44.770Z,3.65
2022-10-25T09:38:40.256Z,4.00
2022-10-25T09:41:16.352Z,4.43
2022-10-25T09:44:01.864Z,3.05
2022-10-25T09:46:37.844Z,3.13
2022-10-25T09:49:31.684Z,3.17
2022-10-25T09:52:03.967Z,2.50
2022-10-25T09:54:51.165Z,2.38
2022-10-25T09:57:17.690Z,2.97
2022-10-25T09:59:49.528Z,2.80
2022-10-25T10:02:23.447Z,3.20
2022-10-25T10:04:50.569Z,3.33
2022-10-25T10:07:34.362Z,3.13
2022-10-25T10:10:04.160Z,2.70
2022-10-25T10:12:41.260Z,3.03
2022-10-25T10:15:19.671Z,2.60
2022-10-25T10:17:46.492Z,2.20
2022-10-25T10:20:16.838Z,3.00
2022-10-25T10:22:53.093Z,3.42
2022-10-25T10:25:24.021Z,2.67
2022-10-25T10:27:53.368Z,2.92
2022-10-25T10:30:28.943Z,5.95
2022-10-25T10:32:59.950Z,2.55
2022-10-25T10:35:34.994Z,3.20
2022-10-25T10:38:27.005Z,2.70
2022-10-25T10:41:11.790Z,2.47
2022-10-25T10:43:38.129Z,2.47
2022-10-25T10:46:09.248Z,1.88
2022-10-25T10:51:25.193Z,2.50
2022-10-25T10:53:57.106Z,2.17
2022-10-25T10:56:23.669Z,1.98
2022-10-25T10:58:53.505Z,1.77
2022-10-25T11:01:33.470Z,2.53
2022-10-25T11:04:01.258Z,2.10
2022-10-25T11:06:33.545Z,0.98
2022-10-25T11:09:16.818Z,2.03
2022-10-25T11:11:44.616Z,1.55
2022-10-25T11:14:12.697Z,1.73
2022-10-25T11:16:56.903Z,1.65
2022-10-25T11:19:42.681Z,1.92
2022-10-25T11:22:30.800Z,1.83
2022-10-25T11:25:27.356Z,2.38
2022-10-25T11:28:15.236Z,1.45
2022-10-25T11:31:12.745Z,1.70
2022-10-25T11:33:50.986Z,1.30
2022-10-25T11:36:40.620Z,0.88
2022-10-25T11:39:33.406Z,1.10
2022-10-25T11:42:19.327Z,1.00
2022-10-25T11:45:18.402Z,1.60
2022-10-25T11:47:44.677Z,1.65
2022-10-25T11:50:34.182Z,1.88
2022-10-25T11:53:06.966Z,1.35
2022-10-25T11:55:47.978Z,1.52
2022-10-25T11:58:52.573Z,1.00
2022-10-25T12:01:50.570Z,2.38
2022-10-25T12:04:38.032Z,1.48
2022-10-25T12:07:13.695Z,1.40
2022-10-25T12:09:54.408Z,1.27
2022-10-25T12:12:26.396Z,1.02
2022-10-25T12:14:58.063Z,1.25
2022-10-25T12:17:33.602Z,1.27
2022-10-25T12:20:04.983Z,1.70
2022-10-25T12:22:39.445Z,1.52
2022-10-25T12:25:34.258Z,1.30
2022-10-25T12:28:25.244Z,1.67
2022-10-25T12:30:59.232Z,1.58
2022-10-25T12:33:35.840Z,1.30
2022-10-25T12:36:07.752Z,1.40
2022-10-25T12:38:37.051Z,1.02
2022-10-25T12:41:27.844Z,0.82
2022-10-25T12:44:24.477Z,0.80
2022-10-25T12:47:18.593Z,0.90
2022-10-25T12:49:57.243Z,1.00
2022-10-25T12:52:23.504Z,0.93
2022-10-25T12:55:19.106Z,1.02
2022-10-25T12:58:04.092Z,0.80
2022-10-25T13:00:41.741Z,0.90
2022-10-25T13:03:48.325Z,0.85
2022-10-25T13:06:28.157Z,1.00
2022-10-25T13:09:01.649Z,1.20
2022-10-25T13:11:36.859Z,1.10
2022-10-25T13:14:04.472Z,1.08
2022-10-25T13:16:33.887Z,1.30
2022-10-25T13:19:53.431Z,1.20
2022-10-25T13:22:41.524Z,0.98
2022-10-25T13:25:07.799Z,0.80
2022-10-25T13:27:36.175Z,0.80
2022-10-25T13:30:11.054Z,0.70
2022-10-25T13:32:39.412Z,1.10
2022-10-25T13:35:25.660Z,1.30
2022-10-25T13:38:20.454Z,1.40
2022-10-25T13:41:06.162Z,1.10
2022-10-25T13:43:32.904Z,1.20
2022-10-25T13:45:59.457Z,0.90
2022-10-25T13:48:31.947Z,1.10
2022-10-25T13:51:00.981Z,1.38
2022-10-25T13:53:40.744Z,0.95
2022-10-25T13:56:16.122Z,0.90
2022-10-25T13:58:43.869Z,0.80
2022-10-25T14:01:16.330Z,1.15
2022-10-25T14:04:23.048Z,1.40
2022-10-25T14:06:49.552Z,1.40
2022-10-25T14:09:33.607Z,1.10
2022-10-25T14:12:06.454Z,0.90
2022-10-25T14:14:48.962Z,1.13
2022-10-25T14:17:21.936Z,0.93
2022-10-25T14:19:51.582Z,1.08
2022-10-25T14:22:32.683Z,1.23
2022-10-25T14:25:03.221Z,1.40
2022-10-25T14:27:31.139Z,0.95
2022-10-25T14:30:29.456Z,1.38
2022-10-25T14:32:58.104Z,0.85
2022-10-25T14:35:28.969Z,0.90
2022-10-25T14:37:55.584Z,1.15
2022-10-25T14:40:25.038Z,0.90
2022-10-25T14:42:53.934Z,1.20
2022-10-25T14:45:26.218Z,0.95
2022-10-25T14:47:53.087Z,1.10
2022-10-25T14:50:25.335Z,1.25
2022-10-25T14:52:52.523Z,1.08
2022-10-25T14:55:28.088Z,0.85
2022-10-25T14:57:55.311Z,0.88
2022-10-25T15:00:23.558Z,0.80
2022-10-25T15:03:01.168Z,1.23
2022-10-25T15:05:28.132Z,1.10
2022-10-25T15:07:57.391Z,1.00
2022-10-25T15:10:45.934Z,1.58
2022-10-25T15:13:20.189Z,1.55
2022-10-25T15:15:49.441Z,1.27
2022-10-25T15:18:36.194Z,0.80
2022-10-25T15:21:10.454Z,0.93
2022-10-25T15:23:38.802Z,1.20
2022-10-25T15:26:23.541Z,0.80
2022-10-25T15:28:54.349Z,1.30
2022-10-25T15:31:24.834Z,1.23
2022-10-25T15:34:05.645Z,1.27
2022-10-25T15:36:33.387Z,1.13
2022-10-25T15:39:18.116Z,1.20
2022-10-25T15:41:44.606Z,1.35
2022-10-25T15:47:28.512Z,1.33
2022-10-25T15:49:55.291Z,1.10
2022-10-25T15:52:22.057Z,1.10
2022-10-25T15:54:49.314Z,1.23
2022-10-25T15:57:16.905Z,1.25
2022-10-25T15:59:43.588Z,1.63
2022-10-25T16:02:28.419Z,1.20
2022-10-25T16:04:54.913Z,1.13
2022-10-25T16:07:22.200Z,0.95
2022-10-25T16:09:48.530Z,0.98
2022-10-25T16:12:20.548Z,1.40
2022-10-25T16:14:48.499Z,1.05
2022-10-25T16:17:15.024Z,1.25
2022-10-25T16:19:41.372Z,1.45
2022-10-25T16:22:07.712Z,1.75
2022-10-25T16:24:34.025Z,1.30
2022-10-25T16:27:01.163Z,1.10
2022-10-25T16:29:27.617Z,1.10
2022-10-25T16:31:54.027Z,1.30
2022-10-25T16:34:20.380Z,1.00
2022-10-25T16:36:48.454Z,1.58
2022-10-25T16:39:15.295Z,1.10
2022-10-25T16:41:44.076Z,0.95
2022-10-25T16:44:18.768Z,1.00
2022-10-25T16:46:45.714Z,1.25
2022-10-25T16:49:12.258Z,0.95
2022-10-25T16:51:39.365Z,1.40
2022-10-25T16:54:05.912Z,1.30
2022-10-25T16:56:32.301Z,1.30
2022-10-25T16:58:58.823Z,1.48
2022-10-25T17:01:34.220Z,2.00
2022-10-25T17:04:02.205Z,1.95
2022-10-25T17:06:40.917Z,1.70
2022-10-25T17:09:08.402Z,1.55
2022-10-25T17:11:34.844Z,1.40
2022-10-25T17:14:01.153Z,1.50
2022-10-25T17:16:27.551Z,1.40
2022-10-25T17:18:53.899Z,1.95
2022-10-25T17:21:20.232Z,1.38
2022-10-25T17:23:46.635Z,1.73
2022-10-25T17:26:13.825Z,1.35
2022-10-25T17:28:43.866Z,1.45
2022-10-25T17:31:12.764Z,1.38
2022-10-25T17:33:40.268Z,1.50
2022-10-25T17:36:13.101Z,1.60
2022-10-25T17:38:40.035Z,1.40
2022-10-25T17:41:07.063Z,1.58
2022-10-25T17:43:38.038Z,1.60
2022-10-25T17:46:07.509Z,1.20
2022-10-25T17:48:33.946Z,1.55
2022-10-25T17:51:10.646Z,1.55
2022-10-25T17:53:37.314Z,1.70
2022-10-25T17:56:15.259Z,2.17
2022-10-25T17:58:43.043Z,1.42
2022-10-25T18:01:10.745Z,1.70
2022-10-25T18:03:38.004Z,1.63
2022-10-25T18:06:06.675Z,1.60
2022-10-25T18:08:33.320Z,2.20
2022-10-25T18:10:59.734Z,1.80
2022-10-25T18:13:28.702Z,1.63
2022-10-25T18:15:55.106Z,1.58
2022-10-25T18:18:21.503Z,1.60
2022-10-25T18:20:51.457Z,1.83
2022-10-25T18:23:18.168Z,2.40
2022-10-25T18:25:52.153Z,2.72
2022-10-25T18:28:18.560Z,3.20
2022-10-25T18:30:44.892Z,2.70
2022-10-25T18:33:14.362Z,3.00
2022-10-25T18:35:41.644Z,2.47
2022-10-25T18:38:07.993Z,2.40
2022-10-25T18:40:35.397Z,2.47
2022-10-25T18:43:01.767Z,2.20
2022-10-25T18:45:28.096Z,2.03
2022-10-25T18:47:55.618Z,2.30
2022-10-25T18:50:22.875Z,1.92
2022-10-25T18:52:49.384Z,2.05
2022-10-25T18:55:15.891Z,1.67
2022-10-25T18:57:42.221Z,1.83
2022-10-25T19:00:09.019Z,2.17
2022-10-25T19:02:37.749Z,2.53
2022-10-25T19:05:04.931Z,2.25
2022-10-25T19:07:31.463Z,2.28
2022-10-25T19:09:57.910Z,1.92
2022-10-25T19:12:24.402Z,2.40
2022-10-25T19:14:50.883Z,2.30
2022-10-25T19:17:17.332Z,1.92
2022-10-25T19:19:43.803Z,2.10
2022-10-25T19:22:10.296Z,2.05
2022-10-25T19:24:38.259Z,2.25
2022-10-25T19:27:04.727Z,1.92
2022-10-25T19:29:31.292Z,2.47
2022-10-25T19:31:57.899Z,2.05
2022-10-25T19:34:24.392Z,2.00
2022-10-25T19:36:51.913Z,2.03
2022-10-25T19:39:18.436Z,2.20
2022-10-25T19:41:44.930Z,2.00
2022-10-25T19:44:11.516Z,2.20
2022-10-25T19:46:37.955Z,2.42
2022-10-25T19:49:04.490Z,2.20
2022-10-25T19:51:30.965Z,2.50
2022-10-25T19:53:57.459Z,2.25
2022-10-25T19:56:24.195Z,1.75
2022-10-25T19:58:50.858Z,2.40
2022-10-25T20:01:23.588Z,1.98
2022-10-25T20:03:52.552Z,1.90
2022-10-25T20:06:24.465Z,2.20
2022-10-25T20:08:52.306Z,2.13
2022-10-25T20:11:19.063Z,2.90
2022-10-25T20:13:46.153Z,2.00
2022-10-25T20:16:13.989Z,2.40
2022-10-25T20:18:41.880Z,2.75
2022-10-25T20:21:14.668Z,2.00
2022-10-25T20:23:49.087Z,1.88
2022-10-25T20:26:22.754Z,1.90
2022-10-25T20:28:51.563Z,1.73
2022-10-25T20:31:19.700Z,1.95
2022-10-25T20:33:46.208Z,1.80
2022-10-25T20:36:13.537Z,1.80
2022-10-25T20:38:40.791Z,2.20
2022-10-25T20:41:08.494Z,1.98
2022-10-25T20:43:35.027Z,2.50
2022-10-25T20:46:01.430Z,2.03
2022-10-25T20:48:27.823Z,2.20
2022-10-25T20:50:54.198Z,2.67
2022-10-25T20:53:21.431Z,2.40
2022-10-25T20:55:49.100Z,2.78
2022-10-25T20:58:20.419Z,2.80
2022-10-25T21:00:47.933Z,3.13
2022-10-25T21:03:15.604Z,3.00
2022-10-25T21:05:43.085Z,2.80
2022-10-25T21:08:10.519Z,2.40
2022-10-25T21:10:37.189Z,2.28
2022-10-25T21:13:03.917Z,2.03
2022-10-25T21:15:30.327Z,2.40
2022-10-25T21:17:56.690Z,2.13
2022-10-25T21:20:23.120Z,2.22
2022-10-25T21:22:49.520Z,2.47
2022-10-25T21:25:15.995Z,2.28
2022-10-25T21:27:42.569Z,2.58
2022-10-25T21:30:09.667Z,2.25
2022-10-25T21:32:36.016Z,2.10
2022-10-25T21:35:02.378Z,2.17
2022-10-25T21:37:28.733Z,2.53
2022-10-25T21:39:55.048Z,2.60
2022-10-25T21:42:21.612Z,2.60
2022-10-25T21:44:47.959Z,2.30
2022-10-25T21:47:14.402Z,2.42
2022-10-25T21:49:40.704Z,2.45
2022-10-25T21:52:07.043Z,2.65
2022-10-25T21:54:33.402Z,2.80
2022-10-25T21:56:59.727Z,2.22
2022-10-25T21:59:26.153Z,2.95
2022-10-25T22:01:52.664Z,2.85
2022-10-25T22:04:19.050Z,2.17
2022-10-25T22:06:45.455Z,2.45
2022-10-25T22:09:11.787Z,2.80
2022-10-25T22:11:39.219Z,3.13
2022-10-25T22:14:08.539Z,3.05
2022-10-25T22:16:35.429Z,3.00
2022-10-25T22:19:04.629Z,3.45
2022-10-25T22:21:37.212Z,5.30
2022-10-25T22:24:05.255Z,5.90
2022-10-25T22:26:31.735Z,5.50
2022-10-25T22:28:59.101Z,3.47
2022-10-25T22:31:27.473Z,3.60
2022-10-25T22:33:56.022Z,2.85
2022-10-25T22:36:25.324Z,2.92
2022-10-25T22:38:51.778Z,2.28
2022-10-25T22:41:20.577Z,2.50
2022-10-25T22:43:48.613Z,2.30
2022-10-25T22:46:16.163Z,2.00
2022-10-25T22:48:44.229Z,2.70
2022-10-25T22:51:11.774Z,3.22
2022-10-25T22:53:38.718Z,2.50
2022-10-25T22:56:11.182Z,3.03
2022-10-25T22:58:38.559Z,3.00
2022-10-25T23:01:13.942Z,3.05
2022-10-25T23:03:46.141Z,2.85
2022-10-25T23:06:14.877Z,3.00
2022-10-25T23:08:42.060Z,3.17
2022-10-25T23:11:13.663Z,2.92
2022-10-25T23:13:40.470Z,2.90
2022-10-25T23:16:07.210Z,3.55
2022-10-25T23:18:34.598Z,4.00
2022-10-25T23:21:02.248Z,3.70
2022-10-25T23:23:35.454Z,4.00
2022-10-25T23:26:02.385Z,4.05
2022-10-25T23:28:31.425Z,3.75
2022-10-25T23:31:04.380Z,3.50
2022-10-25T23:33:30.727Z,3.42
2022-10-25T23:36:05.167Z,3.55
2022-10-25T23:38:31.788Z,3.85
2022-10-25T23:40:58.136Z,4.00
2022-10-25T23:43:24.472Z,3.63
2022-10-25T23:45:50.921Z,3.67
2022-10-25T23:48:17.503Z,3.35
2022-10-25T23:50:43.928Z,3.78
2022-10-25T23:53:10.343Z,5.13
2022-10-25T23:55:38.565Z,3.70
2022-10-25T23:58:05.056Z,3.28
